sensor_id;sensor_type;location;lat;lon;timestamp;P1;durP1;ratioP1;P2;durP2;ratioP2
25687;SDS011;17407;51.120;3.702;2024-01-16T05:44:32;5.68;;;3.40;;
25687;SDS011;17407;51.120;3.702;2024-01-16T05:46:58;4.85;;;3.15;;
25687;SDS011;17407;51.120;3.702;2024-01-16T05:49:24;7.82;;;3.78;;
25687;SDS011;17407;51.120;3.702;2024-01-16T05:51:49;7.40;;;3.53;;
25687;SDS011;17407;51.120;3.702;2024-01-16T05:54:15;10.70;;;4.07;;
25687;SDS011;17407;51.120;3.702;2024-01-16T05:56:41;8.15;;;3.50;;
25687;SDS011;17407;51.120;3.702;2024-01-16T06:09:28;12.10;;;3.58;;
25687;SDS011;17407;51.120;3.702;2024-01-16T06:11:53;7.20;;;3.13;;
25687;SDS011;17407;51.120;3.702;2024-01-16T06:14:19;12.57;;;3.35;;
25687;SDS011;17407;51.120;3.702;2024-01-16T06:16:46;7.85;;;3.63;;
25687;SDS011;17407;51.120;3.702;2024-01-16T06:19:13;10.18;;;3.47;;
25687;SDS011;17407;51.120;3.702;2024-01-16T06:21:39;12.10;;;4.13;;
25687;SDS011;17407;51.120;3.702;2024-01-16T06:24:05;9.32;;;3.53;;
25687;SDS011;17407;51.120;3.702;2024-01-16T06:26:32;9.00;;;3.80;;
25687;SDS011;17407;51.120;3.702;2024-01-16T06:28:58;9.48;;;3.83;;
25687;SDS011;17407;51.120;3.702;2024-01-16T06:31:24;8.52;;;4.65;;
25687;SDS011;17407;51.120;3.702;2024-01-16T06:33:51;7.90;;;4.07;;
25687;SDS011;17407;51.120;3.702;2024-01-16T06:36:17;9.75;;;3.70;;
25687;SDS011;17407;51.120;3.702;2024-01-16T06:38:42;12.00;;;4.18;;
25687;SDS011;17407;51.120;3.702;2024-01-16T06:41:08;10.13;;;4.30;;
25687;SDS011;17407;51.120;3.702;2024-01-16T06:43:34;7.07;;;3.75;;
25687;SDS011;17407;51.120;3.702;2024-01-16T06:46:00;10.73;;;3.80;;
25687;SDS011;17407;51.120;3.702;2024-01-16T06:48:27;13.23;;;4.25;;
25687;SDS011;17407;51.120;3.702;2024-01-16T06:50:52;8.93;;;3.95;;
25687;SDS011;17407;51.120;3.702;2024-01-16T06:53:18;8.38;;;3.63;;
25687;SDS011;17407;51.120;3.702;2024-01-16T06:55:43;7.93;;;3.35;;
25687;SDS011;17407;51.120;3.702;2024-01-16T06:58:09;6.25;;;3.70;;
25687;SDS011;17407;51.120;3.702;2024-01-16T07:00:35;14.82;;;4.28;;
25687;SDS011;17407;51.120;3.702;2024-01-16T07:03:01;7.63;;;3.60;;
25687;SDS011;17407;51.120;3.702;2024-01-16T07:05:29;12.20;;;4.22;;
25687;SDS011;17407;51.120;3.702;2024-01-16T07:07:54;12.68;;;4.38;;
25687;SDS011;17407;51.120;3.702;2024-01-16T07:10:20;15.38;;;3.72;;
25687;SDS011;17407;51.120;3.702;2024-01-16T07:12:47;19.00;;;4.38;;
25687;SDS011;17407;51.120;3.702;2024-01-16T07:15:14;12.85;;;3.92;;
25687;SDS011;17407;51.120;3.702;2024-01-16T07:17:40;9.50;;;3.95;;
25687;SDS011;17407;51.120;3.702;2024-01-16T07:20:06;9.55;;;4.10;;
25687;SDS011;17407;51.120;3.702;2024-01-16T07:22:32;6.05;;;3.30;;
25687;SDS011;17407;51.120;3.702;2024-01-16T07:24:59;8.45;;;4.80;;
25687;SDS011;17407;51.120;3.702;2024-01-16T07:27:25;7.97;;;3.47;;
25687;SDS011;17407;51.120;3.702;2024-01-16T07:29:50;9.73;;;4.13;;
25687;SDS011;17407;51.120;3.702;2024-01-16T07:32:16;9.98;;;4.60;;
25687;SDS011;17407;51.120;3.702;2024-01-16T07:34:42;7.63;;;3.35;;
25687;SDS011;17407;51.120;3.702;2024-01-16T07:37:08;10.77;;;4.10;;
25687;SDS011;17407;51.120;3.702;2024-01-16T07:39:34;11.60;;;4.30;;
25687;SDS011;17407;51.120;3.702;2024-01-16T07:41:59;15.52;;;3.50;;
25687;SDS011;17407;51.120;3.702;2024-01-16T07:44:25;9.55;;;4.20;;
25687;SDS011;17407;51.120;3.702;2024-01-16T07:46:51;6.50;;;3.70;;
25687;SDS011;17407;51.120;3.702;2024-01-16T07:49:17;8.82;;;3.65;;
25687;SDS011;17407;51.120;3.702;2024-01-16T07:51:42;12.35;;;4.05;;
25687;SDS011;17407;51.120;3.702;2024-01-16T07:54:08;9.85;;;4.55;;
25687;SDS011;17407;51.120;3.702;2024-01-16T07:56:35;10.20;;;4.32;;
25687;SDS011;17407;51.120;3.702;2024-01-16T07:59:01;12.75;;;4.60;;
25687;SDS011;17407;51.120;3.702;2024-01-16T08:01:27;10.05;;;4.78;;
25687;SDS011;17407;51.120;3.702;2024-01-16T08:03:56;13.60;;;4.38;;
25687;SDS011;17407;51.120;3.702;2024-01-16T08:06:22;8.00;;;3.75;;
25687;SDS011;17407;51.120;3.702;2024-01-16T08:08:48;11.90;;;4.22;;
25687;SDS011;17407;51.120;3.702;2024-01-16T08:11:15;7.57;;;3.63;;
25687;SDS011;17407;51.120;3.702;2024-01-16T08:13:41;13.60;;;5.68;;
25687;SDS011;17407;51.120;3.702;2024-01-16T08:16:07;14.25;;;5.13;;
25687;SDS011;17407;51.120;3.702;2024-01-16T08:18:33;10.90;;;4.22;;
25687;SDS011;17407;51.120;3.702;2024-01-16T08:20:59;6.55;;;3.20;;
25687;SDS011;17407;51.120;3.702;2024-01-16T08:23:25;11.20;;;4.13;;
25687;SDS011;17407;51.120;3.702;2024-01-16T08:25:50;11.13;;;4.40;;
25687;SDS011;17407;51.120;3.702;2024-01-16T08:28:17;11.27;;;4.85;;
25687;SDS011;17407;51.120;3.702;2024-01-16T08:30:43;10.85;;;4.35;;
25687;SDS011;17407;51.120;3.702;2024-01-16T08:33:09;11.57;;;4.18;;
25687;SDS011;17407;51.120;3.702;2024-01-16T08:35:35;7.53;;;4.13;;
25687;SDS011;17407;51.120;3.702;2024-01-16T08:38:00;12.90;;;4.93;;
25687;SDS011;17407;51.120;3.702;2024-01-16T08:40:26;14.20;;;4.60;;
25687;SDS011;17407;51.120;3.702;2024-01-16T08:42:51;12.02;;;4.60;;
25687;SDS011;17407;51.120;3.702;2024-01-16T08:45:20;12.43;;;4.68;;
25687;SDS011;17407;51.120;3.702;2024-01-16T08:47:46;11.93;;;5.07;;
25687;SDS011;17407;51.120;3.702;2024-01-16T08:50:12;8.63;;;4.63;;
25687;SDS011;17407;51.120;3.702;2024-01-16T08:52:38;10.32;;;4.50;;
25687;SDS011;17407;51.120;3.702;2024-01-16T08:55:03;8.70;;;4.07;;
25687;SDS011;17407;51.120;3.702;2024-01-16T08:57:29;7.97;;;4.30;;
25687;SDS011;17407;51.120;3.702;2024-01-16T08:59:55;6.93;;;4.32;;
25687;SDS011;17407;51.120;3.702;2024-01-16T09:02:21;8.95;;;4.38;;
25687;SDS011;17407;51.120;3.702;2024-01-16T09:04:47;9.75;;;3.90;;
25687;SDS011;17407;51.120;3.702;2024-01-16T09:07:15;8.43;;;4.10;;
25687;SDS011;17407;51.120;3.702;2024-01-16T09:09:43;11.23;;;3.83;;
25687;SDS011;17407;51.120;3.702;2024-01-16T09:12:09;9.40;;;4.15;;
25687;SDS011;17407;51.120;3.702;2024-01-16T09:14:35;13.75;;;4.70;;
25687;SDS011;17407;51.120;3.702;2024-01-16T09:17:01;10.77;;;3.97;;
25687;SDS011;17407;51.120;3.702;2024-01-16T09:19:28;15.02;;;4.28;;
25687;SDS011;17407;51.120;3.702;2024-01-16T09:21:54;12.73;;;4.50;;
25687;SDS011;17407;51.120;3.702;2024-01-16T09:24:20;15.90;;;4.80;;
25687;SDS011;17407;51.120;3.702;2024-01-16T09:26:46;9.23;;;4.18;;
25687;SDS011;17407;51.120;3.702;2024-01-16T09:29:12;12.60;;;4.00;;
25687;SDS011;17407;51.120;3.702;2024-01-16T09:31:39;15.95;;;4.40;;
25687;SDS011;17407;51.120;3.702;2024-01-16T09:34:05;13.73;;;4.63;;
25687;SDS011;17407;51.120;3.702;2024-01-16T09:36:31;11.25;;;4.60;;
25687;SDS011;17407;51.120;3.702;2024-01-16T09:38:57;8.45;;;4.05;;
25687;SDS011;17407;51.120;3.702;2024-01-16T09:41:23;9.32;;;4.43;;
25687;SDS011;17407;51.120;3.702;2024-01-16T09:43:48;9.48;;;4.18;;
25687;SDS011;17407;51.120;3.702;2024-01-16T09:46:16;9.40;;;4.00;;
25687;SDS011;17407;51.120;3.702;2024-01-16T09:48:44;13.50;;;5.10;;
25687;SDS011;17407;51.120;3.702;2024-01-16T09:51:11;12.43;;;5.63;;
25687;SDS011;17407;51.120;3.702;2024-01-16T09:53:40;14.95;;;6.45;;
25687;SDS011;17407;51.120;3.702;2024-01-16T09:56:07;19.52;;;6.28;;
25687;SDS011;17407;51.120;3.702;2024-01-16T09:58:41;10.60;;;4.85;;
25687;SDS011;17407;51.120;3.702;2024-01-16T10:01:10;12.05;;;5.35;;
25687;SDS011;17407;51.120;3.702;2024-01-16T10:03:36;11.45;;;5.28;;
25687;SDS011;17407;51.120;3.702;2024-01-16T10:06:06;9.45;;;4.20;;
25687;SDS011;17407;51.120;3.702;2024-01-16T10:08:32;17.13;;;6.50;;
25687;SDS011;17407;51.120;3.702;2024-01-16T10:10:59;11.10;;;5.53;;
25687;SDS011;17407;51.120;3.702;2024-01-16T10:13:25;18.95;;;6.65;;
25687;SDS011;17407;51.120;3.702;2024-01-16T10:15:51;18.73;;;8.77;;
25687;SDS011;17407;51.120;3.702;2024-01-16T10:18:26;19.05;;;7.70;;
25687;SDS011;17407;51.120;3.702;2024-01-16T10:20:55;11.57;;;6.82;;
25687;SDS011;17407;51.120;3.702;2024-01-16T10:23:27;14.73;;;7.03;;
25687;SDS011;17407;51.120;3.702;2024-01-16T10:28:39;18.67;;;7.95;;
25687;SDS011;17407;51.120;3.702;2024-01-16T10:31:06;19.80;;;8.55;;
25687;SDS011;17407;51.120;3.702;2024-01-16T10:33:34;26.52;;;11.77;;
25687;SDS011;17407;51.120;3.702;2024-01-16T10:36:16;28.33;;;11.57;;
25687;SDS011;17407;51.120;3.702;2024-01-16T10:38:44;28.52;;;11.80;;
25687;SDS011;17407;51.120;3.702;2024-01-16T10:41:14;33.17;;;13.32;;
25687;SDS011;17407;51.120;3.702;2024-01-16T10:43:42;30.13;;;11.95;;
25687;SDS011;17407;51.120;3.702;2024-01-16T10:46:12;24.02;;;12.63;;
25687;SDS011;17407;51.120;3.702;2024-01-16T10:48:40;20.73;;;10.18;;
25687;SDS011;17407;51.120;3.702;2024-01-16T10:51:07;16.52;;;7.72;;
25687;SDS011;17407;51.120;3.702;2024-01-16T10:53:34;22.02;;;7.57;;
25687;SDS011;17407;51.120;3.702;2024-01-16T10:56:02;17.58;;;7.38;;
25687;SDS011;17407;51.120;3.702;2024-01-16T10:58:30;17.25;;;6.97;;
25687;SDS011;17407;51.120;3.702;2024-01-16T11:00:57;19.55;;;8.82;;
25687;SDS011;17407;51.120;3.702;2024-01-16T11:03:35;20.95;;;9.32;;
25687;SDS011;17407;51.120;3.702;2024-01-16T11:06:06;14.68;;;6.00;;
25687;SDS011;17407;51.120;3.702;2024-01-16T11:08:38;13.05;;;5.22;;
25687;SDS011;17407;51.120;3.702;2024-01-16T11:11:04;14.32;;;5.47;;
25687;SDS011;17407;51.120;3.702;2024-01-16T11:16:06;18.70;;;6.63;;
25687;SDS011;17407;51.120;3.702;2024-01-16T11:18:35;14.90;;;5.25;;
25687;SDS011;17407;51.120;3.702;2024-01-16T11:21:01;10.80;;;4.72;;
25687;SDS011;17407;51.120;3.702;2024-01-16T11:23:30;10.25;;;4.95;;
25687;SDS011;17407;51.120;3.702;2024-01-16T11:25:55;18.88;;;5.95;;
25687;SDS011;17407;51.120;3.702;2024-01-16T11:28:21;7.82;;;4.53;;
25687;SDS011;17407;51.120;3.702;2024-01-16T11:30:54;14.37;;;5.27;;
25687;SDS011;17407;51.120;3.702;2024-01-16T11:35:56;11.68;;;5.15;;
25687;SDS011;17407;51.120;3.702;2024-01-16T11:38:22;8.27;;;4.05;;
25687;SDS011;17407;51.120;3.702;2024-01-16T11:40:51;8.98;;;4.55;;
25687;SDS011;17407;51.120;3.702;2024-01-16T11:46:03;12.30;;;4.53;;
25687;SDS011;17407;51.120;3.702;2024-01-16T11:48:34;11.43;;;4.55;;
25687;SDS011;17407;51.120;3.702;2024-01-16T11:51:01;7.90;;;4.47;;
25687;SDS011;17407;51.120;3.702;2024-01-16T11:53:50;13.82;;;4.80;;
25687;SDS011;17407;51.120;3.702;2024-01-16T11:58:48;10.35;;;4.68;;
25687;SDS011;17407;51.120;3.702;2024-01-16T12:01:22;12.65;;;4.85;;
25687;SDS011;17407;51.120;3.702;2024-01-16T12:04:03;14.13;;;4.30;;
25687;SDS011;17407;51.120;3.702;2024-01-16T12:06:30;11.00;;;3.83;;
25687;SDS011;17407;51.120;3.702;2024-01-16T12:09:15;9.93;;;4.30;;
25687;SDS011;17407;51.120;3.702;2024-01-16T12:11:45;8.93;;;4.53;;
25687;SDS011;17407;51.120;3.702;2024-01-16T12:14:28;13.27;;;3.72;;
25687;SDS011;17407;51.120;3.702;2024-01-16T12:17:12;9.32;;;3.83;;
25687;SDS011;17407;51.120;3.702;2024-01-16T12:19:39;10.43;;;3.90;;
25687;SDS011;17407;51.120;3.702;2024-01-16T12:22:10;9.88;;;4.03;;
25687;SDS011;17407;51.120;3.702;2024-01-16T12:24:38;10.25;;;4.85;;
25687;SDS011;17407;51.120;3.702;2024-01-16T12:27:04;9.35;;;4.05;;
25687;SDS011;17407;51.120;3.702;2024-01-16T12:29:31;9.70;;;3.72;;
25687;SDS011;17407;51.120;3.702;2024-01-16T12:32:09;9.85;;;3.95;;
25687;SDS011;17407;51.120;3.702;2024-01-16T12:34:46;8.55;;;3.58;;
25687;SDS011;17407;51.120;3.702;2024-01-16T12:37:13;7.05;;;3.80;;
25687;SDS011;17407;51.120;3.702;2024-01-16T12:39:39;7.32;;;3.88;;
25687;SDS011;17407;51.120;3.702;2024-01-16T12:42:06;16.45;;;4.88;;
25687;SDS011;17407;51.120;3.702;2024-01-16T12:44:34;5.97;;;3.00;;
25687;SDS011;17407;51.120;3.702;2024-01-16T12:47:01;9.80;;;4.07;;
25687;SDS011;17407;51.120;3.702;2024-01-16T12:49:27;8.13;;;3.20;;
25687;SDS011;17407;51.120;3.702;2024-01-16T12:52:14;6.57;;;3.33;;
25687;SDS011;17407;51.120;3.702;2024-01-16T12:54:43;7.75;;;3.70;;
25687;SDS011;17407;51.120;3.702;2024-01-16T12:57:09;11.82;;;4.18;;
25687;SDS011;17407;51.120;3.702;2024-01-16T12:59:39;20.23;;;4.35;;
25687;SDS011;17407;51.120;3.702;2024-01-16T13:02:04;14.75;;;8.23;;
25687;SDS011;17407;51.120;3.702;2024-01-16T13:04:31;15.60;;;6.93;;
25687;SDS011;17407;51.120;3.702;2024-01-16T13:07:03;11.18;;;4.43;;
25687;SDS011;17407;51.120;3.702;2024-01-16T13:09:28;11.98;;;3.55;;
25687;SDS011;17407;51.120;3.702;2024-01-16T13:11:55;12.70;;;3.45;;
25687;SDS011;17407;51.120;3.702;2024-01-16T13:14:21;10.65;;;3.65;;
25687;SDS011;17407;51.120;3.702;2024-01-16T13:16:50;6.85;;;3.72;;
25687;SDS011;17407;51.120;3.702;2024-01-16T13:19:20;6.45;;;3.22;;
25687;SDS011;17407;51.120;3.702;2024-01-16T13:21:45;8.80;;;3.50;;
25687;SDS011;17407;51.120;3.702;2024-01-16T13:24:11;17.80;;;7.85;;
25687;SDS011;17407;51.120;3.702;2024-01-16T13:26:42;23.50;;;8.82;;
25687;SDS011;17407;51.120;3.702;2024-01-16T13:29:08;22.98;;;8.02;;
25687;SDS011;17407;51.120;3.702;2024-01-16T13:31:34;14.35;;;5.53;;
25687;SDS011;17407;51.120;3.702;2024-01-16T13:33:59;11.27;;;4.88;;
25687;SDS011;17407;51.120;3.702;2024-01-16T13:36:25;11.77;;;5.35;;
25687;SDS011;17407;51.120;3.702;2024-01-16T13:38:51;10.00;;;5.30;;
25687;SDS011;17407;51.120;3.702;2024-01-16T13:41:17;9.30;;;4.15;;
25687;SDS011;17407;51.120;3.702;2024-01-16T13:43:42;6.78;;;4.03;;
25687;SDS011;17407;51.120;3.702;2024-01-16T13:46:08;6.57;;;3.42;;
25687;SDS011;17407;51.120;3.702;2024-01-16T13:48:35;6.15;;;3.40;;
25687;SDS011;17407;51.120;3.702;2024-01-16T13:51:00;10.00;;;3.85;;
25687;SDS011;17407;51.120;3.702;2024-01-16T13:53:26;9.13;;;3.60;;
25687;SDS011;17407;51.120;3.702;2024-01-16T13:55:52;10.52;;;3.85;;
25687;SDS011;17407;51.120;3.702;2024-01-16T13:58:18;7.10;;;3.55;;
25687;SDS011;17407;51.120;3.702;2024-01-16T14:00:43;7.07;;;4.05;;
25687;SDS011;17407;51.120;3.702;2024-01-16T14:03:09;7.00;;;3.58;;
25687;SDS011;17407;51.120;3.702;2024-01-16T14:05:35;8.90;;;4.45;;
25687;SDS011;17407;51.120;3.702;2024-01-16T14:08:01;6.05;;;3.15;;
25687;SDS011;17407;51.120;3.702;2024-01-16T14:10:30;9.07;;;3.80;;
25687;SDS011;17407;51.120;3.702;2024-01-16T14:12:56;7.45;;;3.78;;
25687;SDS011;17407;51.120;3.702;2024-01-16T14:15:22;10.32;;;4.53;;
25687;SDS011;17407;51.120;3.702;2024-01-16T14:17:52;7.15;;;4.32;;
25687;SDS011;17407;51.120;3.702;2024-01-16T14:20:19;8.20;;;3.95;;
25687;SDS011;17407;51.120;3.702;2024-01-16T14:22:48;8.15;;;4.13;;
25687;SDS011;17407;51.120;3.702;2024-01-16T14:25:20;8.02;;;3.53;;
25687;SDS011;17407;51.120;3.702;2024-01-16T14:27:56;7.63;;;3.92;;
25687;SDS011;17407;51.120;3.702;2024-01-16T14:30:28;7.55;;;4.63;;
25687;SDS011;17407;51.120;3.702;2024-01-16T14:32:54;7.65;;;4.00;;
25687;SDS011;17407;51.120;3.702;2024-01-16T14:35:23;8.43;;;3.78;;
25687;SDS011;17407;51.120;3.702;2024-01-16T14:37:52;8.73;;;3.97;;
25687;SDS011;17407;51.120;3.702;2024-01-16T14:40:18;10.68;;;4.10;;
25687;SDS011;17407;51.120;3.702;2024-01-16T14:42:50;8.73;;;3.88;;
25687;SDS011;17407;51.120;3.702;2024-01-16T14:45:18;8.68;;;3.78;;
25687;SDS011;17407;51.120;3.702;2024-01-16T14:47:46;7.90;;;3.63;;
25687;SDS011;17407;51.120;3.702;2024-01-16T14:50:11;9.77;;;3.55;;
25687;SDS011;17407;51.120;3.702;2024-01-16T14:52:42;8.10;;;3.95;;
25687;SDS011;17407;51.120;3.702;2024-01-16T14:55:10;10.15;;;3.90;;
25687;SDS011;17407;51.120;3.702;2024-01-16T14:57:39;8.45;;;4.13;;
25687;SDS011;17407;51.120;3.702;2024-01-16T15:00:09;7.80;;;3.65;;
25687;SDS011;17407;51.120;3.702;2024-01-16T15:02:48;9.82;;;3.50;;
25687;SDS011;17407;51.120;3.702;2024-01-16T15:05:18;8.30;;;4.38;;
25687;SDS011;17407;51.120;3.702;2024-01-16T15:07:44;10.05;;;3.80;;
25687;SDS011;17407;51.120;3.702;2024-01-16T15:10:11;9.80;;;4.05;;
25687;SDS011;17407;51.120;3.702;2024-01-16T15:12:40;5.72;;;3.20;;
25687;SDS011;17407;51.120;3.702;2024-01-16T15:15:07;7.32;;;3.70;;
25687;SDS011;17407;51.120;3.702;2024-01-16T15:17:35;6.57;;;3.50;;
25687;SDS011;17407;51.120;3.702;2024-01-16T15:20:01;7.93;;;4.13;;
25687;SDS011;17407;51.120;3.702;2024-01-16T15:22:34;6.78;;;3.28;;
25687;SDS011;17407;51.120;3.702;2024-01-16T15:25:02;4.30;;;2.78;;
25687;SDS011;17407;51.120;3.702;2024-01-16T15:27:30;7.68;;;3.65;;
25687;SDS011;17407;51.120;3.702;2024-01-16T15:29:56;6.95;;;4.70;;
25687;SDS011;17407;51.120;3.702;2024-01-16T15:32:23;10.82;;;4.30;;
25687;SDS011;17407;51.120;3.702;2024-01-16T15:34:48;8.88;;;4.70;;
25687;SDS011;17407;51.120;3.702;2024-01-16T15:37:14;11.07;;;5.47;;
25687;SDS011;17407;51.120;3.702;2024-01-16T15:39:40;12.10;;;4.30;;
25687;SDS011;17407;51.120;3.702;2024-01-16T15:42:05;7.15;;;4.20;;
25687;SDS011;17407;51.120;3.702;2024-01-16T15:44:31;8.57;;;3.97;;
25687;SDS011;17407;51.120;3.702;2024-01-16T15:47:01;7.00;;;4.22;;
25687;SDS011;17407;51.120;3.702;2024-01-16T15:49:28;9.27;;;4.30;;
25687;SDS011;17407;51.120;3.702;2024-01-16T15:51:56;11.20;;;4.90;;
25687;SDS011;17407;51.120;3.702;2024-01-16T15:54:24;8.02;;;4.45;;
25687;SDS011;17407;51.120;3.702;2024-01-16T15:56:50;10.63;;;6.03;;
25687;SDS011;17407;51.120;3.702;2024-01-16T15:59:15;13.15;;;6.22;;
25687;SDS011;17407;51.120;3.702;2024-01-16T16:01:41;10.20;;;5.40;;
25687;SDS011;17407;51.120;3.702;2024-01-16T16:04:07;23.00;;;9.00;;
25687;SDS011;17407;51.120;3.702;2024-01-16T16:06:33;21.80;;;8.70;;
25687;SDS011;17407;51.120;3.702;2024-01-16T16:09:00;14.07;;;6.20;;
25687;SDS011;17407;51.120;3.702;2024-01-16T16:11:26;16.02;;;5.30;;
25687;SDS011;17407;51.120;3.702;2024-01-16T16:13:52;7.70;;;4.80;;
25687;SDS011;17407;51.120;3.702;2024-01-16T16:16:17;10.07;;;4.05;;
25687;SDS011;17407;51.120;3.702;2024-01-16T16:18:43;9.50;;;5.00;;
25687;SDS011;17407;51.120;3.702;2024-01-16T16:21:09;7.35;;;4.88;;
25687;SDS011;17407;51.120;3.702;2024-01-16T16:23:34;9.85;;;4.88;;
25687;SDS011;17407;51.120;3.702;2024-01-16T16:26:00;11.15;;;5.25;;
25687;SDS011;17407;51.120;3.702;2024-01-16T16:28:26;15.38;;;5.10;;
25687;SDS011;17407;51.120;3.702;2024-01-16T16:30:51;10.63;;;5.22;;
25687;SDS011;17407;51.120;3.702;2024-01-16T16:33:17;6.82;;;4.10;;
25687;SDS011;17407;51.120;3.702;2024-01-16T16:35:43;8.25;;;4.20;;
25687;SDS011;17407;51.120;3.702;2024-01-16T16:38:09;8.15;;;4.68;;
25687;SDS011;17407;51.120;3.702;2024-01-16T16:40:38;8.25;;;4.15;;
25687;SDS011;17407;51.120;3.702;2024-01-16T16:43:04;6.97;;;4.57;;
25687;SDS011;17407;51.120;3.702;2024-01-16T16:45:30;11.23;;;5.13;;
25687;SDS011;17407;51.120;3.702;2024-01-16T16:47:59;9.80;;;4.25;;
25687;SDS011;17407;51.120;3.702;2024-01-16T16:50:24;13.40;;;5.13;;
25687;SDS011;17407;51.120;3.702;2024-01-16T16:52:50;12.32;;;5.95;;
25687;SDS011;17407;51.120;3.702;2024-01-16T16:55:16;10.40;;;4.70;;
25687;SDS011;17407;51.120;3.702;2024-01-16T16:57:41;8.48;;;4.25;;
25687;SDS011;17407;51.120;3.702;2024-01-16T17:00:07;8.90;;;4.68;;
25687;SDS011;17407;51.120;3.702;2024-01-16T17:02:33;10.32;;;4.18;;
25687;SDS011;17407;51.120;3.702;2024-01-16T17:05:00;12.80;;;4.60;;
25687;SDS011;17407;51.120;3.702;2024-01-16T17:07:26;10.48;;;5.00;;
25687;SDS011;17407;51.120;3.702;2024-01-16T17:09:52;8.30;;;3.85;;
25687;SDS011;17407;51.120;3.702;2024-01-16T17:12:18;9.77;;;4.10;;
25687;SDS011;17407;51.120;3.702;2024-01-16T17:14:43;7.70;;;3.70;;
25687;SDS011;17407;51.120;3.702;2024-01-16T17:32:41;5.97;;;4.22;;
25687;SDS011;17407;51.120;3.702;2024-01-16T17:35:07;9.85;;;4.68;;
25687;SDS011;17407;51.120;3.702;2024-01-16T17:37:44;10.63;;;5.20;;
25687;SDS011;17407;51.120;3.702;2024-01-16T17:50:35;9.50;;;6.15;;
25687;SDS011;17407;51.120;3.702;2024-01-16T17:53:01;11.27;;;6.75;;
25687;SDS011;17407;51.120;3.702;2024-01-16T17:55:34;15.73;;;6.88;;
25687;SDS011;17407;51.120;3.702;2024-01-16T17:58:01;12.88;;;6.78;;
25687;SDS011;17407;51.120;3.702;2024-01-16T18:00:27;9.13;;;6.22;;
25687;SDS011;17407;51.120;3.702;2024-01-16T18:02:57;13.25;;;6.53;;
25687;SDS011;17407;51.120;3.702;2024-01-16T18:05:23;13.18;;;6.65;;
25687;SDS011;17407;51.120;3.702;2024-01-16T18:07:52;13.50;;;6.07;;
25687;SDS011;17407;51.120;3.702;2024-01-16T18:10:18;12.43;;;5.13;;
25687;SDS011;17407;51.120;3.702;2024-01-16T18:12:44;10.95;;;5.53;;
25687;SDS011;17407;51.120;3.702;2024-01-16T18:15:10;11.05;;;4.90;;
25687;SDS011;17407;51.120;3.702;2024-01-16T18:17:47;12.13;;;5.68;;
25687;SDS011;17407;51.120;3.702;2024-01-16T18:20:16;12.95;;;5.88;;
25687;SDS011;17407;51.120;3.702;2024-01-16T18:22:44;15.95;;;6.53;;
25687;SDS011;17407;51.120;3.702;2024-01-16T18:25:11;13.95;;;6.32;;
25687;SDS011;17407;51.120;3.702;2024-01-16T18:35:25;17.77;;;8.23;;
25687;SDS011;17407;51.120;3.702;2024-01-16T18:37:51;12.35;;;7.72;;
25687;SDS011;17407;51.120;3.702;2024-01-16T18:40:17;15.23;;;8.35;;
25687;SDS011;17407;51.120;3.702;2024-01-16T18:42:45;12.05;;;7.65;;
25687;SDS011;17407;51.120;3.702;2024-01-16T18:45:13;13.55;;;8.50;;
25687;SDS011;17407;51.120;3.702;2024-01-16T19:21:24;15.73;;;9.38;;
25687;SDS011;17407;51.120;3.702;2024-01-16T19:26:30;15.80;;;9.45;;
25687;SDS011;17407;51.120;3.702;2024-01-16T20:36:18;20.10;;;10.68;;
25687;SDS011;17407;51.120;3.702;2024-01-16T20:38:46;21.00;;;12.82;;
25687;SDS011;17407;51.120;3.702;2024-01-16T20:41:16;21.50;;;13.05;;
25687;SDS011;17407;51.120;3.702;2024-01-16T20:48:54;22.77;;;12.73;;
25687;SDS011;17407;51.120;3.702;2024-01-16T20:51:23;19.38;;;12.38;;
25687;SDS011;17407;51.120;3.702;2024-01-16T20:53:53;19.88;;;10.93;;
25687;SDS011;17407;51.120;3.702;2024-01-16T20:56:19;20.25;;;11.88;;
25687;SDS011;17407;51.120;3.702;2024-01-16T20:58:44;18.50;;;11.18;;
25687;SDS011;17407;51.120;3.702;2024-01-16T21:01:10;19.58;;;11.65;;
25687;SDS011;17407;51.120;3.702;2024-01-16T21:03:36;18.35;;;11.02;;
25687;SDS011;17407;51.120;3.702;2024-01-16T21:06:02;18.60;;;11.88;;
25687;SDS011;17407;51.120;3.702;2024-01-16T21:11:03;17.50;;;12.25;;
25687;SDS011;17407;51.120;3.702;2024-01-16T21:13:29;20.80;;;11.77;;
25687;SDS011;17407;51.120;3.702;2024-01-16T22:07:42;30.90;;;13.55;;
25687;SDS011;17407;51.120;3.702;2024-01-16T22:10:08;18.38;;;12.02;;
25687;SDS011;17407;51.120;3.702;2024-01-16T22:12:34;25.85;;;13.63;;
25687;SDS011;17407;51.120;3.702;2024-01-16T22:15:00;22.10;;;11.63;;
25687;SDS011;17407;51.120;3.702;2024-01-16T22:17:26;21.60;;;12.32;;
25687;SDS011;17407;51.120;3.702;2024-01-16T22:19:57;20.40;;;12.65;;
25687;SDS011;17407;51.120;3.702;2024-01-16T22:22:23;22.60;;;13.68;;
25687;SDS011;17407;51.120;3.702;2024-01-16T22:24:49;20.17;;;12.23;;
25687;SDS011;17407;51.120;3.702;2024-01-16T22:27:16;23.05;;;12.75;;
25687;SDS011;17407;51.120;3.702;2024-01-16T22:29:43;22.85;;;13.05;;
25687;SDS011;17407;51.120;3.702;2024-01-16T22:32:10;19.10;;;11.77;;
25687;SDS011;17407;51.120;3.702;2024-01-16T22:34:36;19.55;;;12.65;;
25687;SDS011;17407;51.120;3.702;2024-01-16T22:37:02;22.10;;;13.18;;
25687;SDS011;17407;51.120;3.702;2024-01-16T22:39:28;20.20;;;12.27;;
25687;SDS011;17407;51.120;3.702;2024-01-16T22:41:54;20.15;;;11.55;;
25687;SDS011;17407;51.120;3.702;2024-01-16T22:44:20;22.85;;;13.38;;
25687;SDS011;17407;51.120;3.702;2024-01-16T22:46:47;20.85;;;13.32;;
25687;SDS011;17407;51.120;3.702;2024-01-16T22:49:12;23.85;;;13.23;;
25687;SDS011;17407;51.120;3.702;2024-01-16T22:51:39;21.80;;;13.77;;
25687;SDS011;17407;51.120;3.702;2024-01-16T22:54:05;19.48;;;12.07;;
25687;SDS011;17407;51.120;3.702;2024-01-16T22:56:31;24.13;;;13.13;;
25687;SDS011;17407;51.120;3.702;2024-01-16T22:58:57;24.25;;;12.88;;
25687;SDS011;17407;51.120;3.702;2024-01-16T23:01:24;22.25;;;13.55;;
25687;SDS011;17407;51.120;3.702;2024-01-16T23:03:52;20.92;;;13.05;;
25687;SDS011;17407;51.120;3.702;2024-01-16T23:06:27;24.83;;;13.38;;
25687;SDS011;17407;51.120;3.702;2024-01-16T23:08:59;20.27;;;11.73;;
25687;SDS011;17407;51.120;3.702;2024-01-16T23:11:25;20.65;;;12.15;;
25687;SDS011;17407;51.120;3.702;2024-01-16T23:13:51;18.40;;;11.57;;
25687;SDS011;17407;51.120;3.702;2024-01-16T23:16:18;26.42;;;13.15;;
25687;SDS011;17407;51.120;3.702;2024-01-16T23:18:44;20.83;;;11.68;;
25687;SDS011;17407;51.120;3.702;2024-01-16T23:21:11;17.70;;;10.75;;
25687;SDS011;17407;51.120;3.702;2024-01-16T23:23:39;16.83;;;11.07;;
25687;SDS011;17407;51.120;3.702;2024-01-16T23:26:07;18.58;;;12.15;;
25687;SDS011;17407;51.120;3.702;2024-01-16T23:28:35;21.48;;;12.35;;
25687;SDS011;17407;51.120;3.702;2024-01-16T23:31:01;17.58;;;12.02;;
25687;SDS011;17407;51.120;3.702;2024-01-16T23:33:27;16.70;;;11.60;;
25687;SDS011;17407;51.120;3.702;2024-01-16T23:35:53;19.70;;;11.68;;
25687;SDS011;17407;51.120;3.702;2024-01-16T23:38:19;20.20;;;11.65;;
25687;SDS011;17407;51.120;3.702;2024-01-16T23:40:45;25.52;;;11.65;;
25687;SDS011;17407;51.120;3.702;2024-01-16T23:43:11;20.45;;;11.88;;
25687;SDS011;17407;51.120;3.702;2024-01-16T23:45:37;16.75;;;10.82;;
25687;SDS011;17407;51.120;3.702;2024-01-16T23:48:03;19.70;;;11.73;;
25687;SDS011;17407;51.120;3.702;2024-01-16T23:50:29;22.73;;;12.50;;
25687;SDS011;17407;51.120;3.702;2024-01-16T23:52:55;22.20;;;10.70;;
25687;SDS011;17407;51.120;3.702;2024-01-16T23:55:21;18.55;;;11.70;;
25687;SDS011;17407;51.120;3.702;2024-01-16T23:57:48;23.48;;;11.35;;
